00:10
Airports
History
Links
Donate
Help keep this website running!
PayPal
Bitcoin
This page is community maintained. The information is intended for PC simulator navigation or reference.
Always use approved charts for navigation.
XIIO
Oyek
Oyek (XIIO)
Irkutskaya oblast, Russian Federation (664541)
4
Lat/Lng:52° 33' 1.27" N / 104° 27' 16.72" E
52.550352 / 104.454645
Elevation:1482'ft / 452mMSL
ID / ICAO:XIIO
Runways:1
Longest:07-25
Grass 756m / 2,482ft
Nearby Weather00:00 GMT 2017-11-25
Nearby weather at UIII, Irkutsk located 19.8 nautical miles from XIIO
Altimeter: 30.18
Visibility: 6.2 statute miles
Wind: 5.8 knots (from 070°)
Temp: -24°c / -11°f
Humidity: 83.4%

METAR: UIII 250000Z 07003MPS 9999 SCT033 M24/M26 Q1022 R12/490245 NOSIG RMK QFE724/0966

(Powered by phpweather)
Nearby VORs <50NM
Nearby NDBs
Runway 07 / 25
Dimensions:756.4 x 60.1m 2482' x 197'ft
Surface:Grass
Runway 07 [A]Runway 25 [B]
Heading:025°TH 205°TH
Lat:
Lng:
52° 32' 50.11"N
104° 27' 8.02"E
52° 33' 12.43"N
104° 27' 25.42"E
User Notes and Comments
52° 33' 1.27" N / 104° 27' 16.72" E
Distance To
Airport ID:
Nearby Airports
(U) Irkutsk Northwest 17.0 NM
UIIR SW 222°
(C) Irkutsk 19.8 NM
UIII ( WX ) S 187°
(C) Ust-Ordynskiy 22.4 NM
UIIO NNE 31°
(C) Belaya 44.6 NM
UIIB NW 304°
4 Belsk 60.7 NM
UI10 WNW 292°
4 Nizhnyaya Iret 86.9 NM
UI96 WNW 290°
4 Kyren 114.5 NM
UIIN WSW 238°
VFR Chart
Flight Planning at SkyVector.com